Time;durP1;ratioP1;P1;durP2;ratioP2;P2;SDS_P1;SDS_P2;PMS_P1;PMS_P2;Temp;Humidity;BMP_temperature;BMP_pressure;BME280_temperature;BME280_humidity;BME280_pressure;Samples;Min_cycle;Max_cycle;Signal;HPM_P1;HPM_P2
2022/09/28 00:06:41;;;;;;;3.9;6.5;;;;;;;11.3;85.2;97170;;;;
2022/09/28 00:17:43;;;;;;;6.4;9.8;;;;;;;11.1;84.8;97160;;;;
2022/09/28 00:28:41;;;;;;;6.4;9.8;;;;;;;10.9;84.9;97170;;;;
2022/09/28 00:39:42;;;;;;;6.4;9.8;;;;;;;10.7;85.5;97170;;;;
2022/09/28 00:50:41;;;;;;;4.4;6.8;;;;;;;10.6;85.3;97170;;;;
2022/09/28 01:00:41;;;;;;;4.4;6.8;;;;;;;10.5;86.1;97150;;;;
2022/09/28 01:11:41;;;;;;;4.5;6.9;;;;;;;10.6;86.3;97150;;;;
2022/09/28 01:21:41;;;;;;;4.5;6.9;;;;;;;10.6;86.5;97160;;;;
2022/09/28 01:32:41;;;;;;;4.5;6.9;;;;;;;10.4;86.6;97160;;;;
2022/09/28 01:42:41;;;;;;;7.3;15;;;;;;;10.4;86.8;97160;;;;
2022/09/28 01:53:41;;;;;;;7.3;15;;;;;;;10.5;87.1;97170;;;;
2022/09/28 02:03:41;;;;;;;7.3;15;;;;;;;10.4;86.3;97170;;;;
2022/09/28 02:13:41;;;;;;;7;10.2;;;;;;;10.5;85.7;97180;;;;
2022/09/28 02:24:41;;;;;;;7;10.2;;;;;;;10.4;84.9;97180;;;;
2022/09/28 02:35:41;;;;;;;7;10.2;;;;;;;9.9;84.9;97190;;;;
2022/09/28 02:46:41;;;;;;;3.8;6.8;;;;;;;9.6;84.9;97200;;;;
2022/09/28 02:57:41;;;;;;;3.8;6.8;;;;;;;9.3;85.4;97200;;;;
2022/09/28 03:07:41;;;;;;;3.8;6.8;;;;;;;9.1;85.3;97190;;;;
2022/09/28 03:18:41;;;;;;;2.6;7;;;;;;;8.8;85.1;97200;;;;
2022/09/28 03:28:41;;;;;;;2.6;7;;;;;;;8.5;85.2;97190;;;;
2022/09/28 03:38:41;;;;;;;2.6;7;;;;;;;8.3;85.7;97190;;;;
2022/09/28 03:49:41;;;;;;;1.9;4.1;;;;;;;7.9;87.2;97200;;;;
2022/09/28 03:59:41;;;;;;;1.9;4.1;;;;;;;7.7;87.8;97200;;;;
2022/09/28 04:10:41;;;;;;;1.9;4.1;;;;;;;7.7;87.9;97210;;;;
2022/09/28 04:20:44;;;;;;;2;4.2;;;;;;;7.6;87.5;97210;;;;
2022/09/28 04:30:41;;;;;;;2;4.2;;;;;;;7.4;87.2;97220;;;;
2022/09/28 04:41:41;;;;;;;2.2;4.2;;;;;;;7.1;86.9;97220;;;;
2022/09/28 04:51:41;;;;;;;2.2;4.2;;;;;;;7;86.9;97230;;;;
2022/09/28 05:02:41;;;;;;;2.2;4.2;;;;;;;7.2;87.4;97230;;;;
2022/09/28 05:12:41;;;;;;;2;3.8;;;;;;;7.5;88.2;97240;;;;
2022/09/28 05:22:41;;;;;;;2;3.8;;;;;;;8.1;88.6;97240;;;;
2022/09/28 05:32:41;;;;;;;2;3.8;;;;;;;8.3;88.2;97230;;;;
2022/09/28 05:43:42;;;;;;;1.9;4.2;;;;;;;8.5;88;97230;;;;
2022/09/28 05:54:41;;;;;;;1.9;4.2;;;;;;;8.8;86.5;97230;;;;
2022/09/28 06:04:41;;;;;;;1.9;4.2;;;;;;;9.4;85.5;97230;;;;
2022/09/28 06:15:41;;;;;;;2.2;4.4;;;;;;;9.6;82.8;97240;;;;
2022/09/28 06:25:41;;;;;;;2.2;4.4;;;;;;;10.1;82;97240;;;;
2022/09/28 06:35:41;;;;;;;2.2;4.4;;;;;;;10.5;79.7;97220;;;;
2022/09/28 06:46:41;;;;;;;2;4.4;;;;;;;10.8;78.6;97210;;;;
2022/09/28 06:56:41;;;;;;;2;4.4;;;;;;;10.9;76;97200;;;;
2022/09/28 07:07:43;;;;;;;2;4.4;;;;;;;11.1;75.2;97230;;;;
2022/09/28 07:17:41;;;;;;;1.1;3.1;;;;;;;11.5;75;97230;;;;
2022/09/28 07:28:41;;;;;;;1.1;3.1;;;;;;;11.7;73.3;97230;;;;
2022/09/28 07:49:41;;;;;;;1.1;2.7;;;;;;;12.4;70.2;97240;;;;
2022/09/28 07:59:42;;;;;;;1.1;2.7;;;;;;;12.8;69.1;97240;;;;
2022/09/28 08:10:41;;;;;;;0.8;1.6;;;;;;;12.8;67.7;97230;;;;
2022/09/28 08:21:45;;;;;;;0.8;1.6;;;;;;;13;65.4;97230;;;;
2022/09/28 08:31:41;;;;;;;0.8;1.6;;;;;;;13.4;62.2;97230;;;;
2022/09/28 08:42:41;;;;;;;0.7;2.2;;;;;;;13.4;61.7;97220;;;;
2022/09/28 08:52:41;;;;;;;0.7;2.2;;;;;;;13.4;60.7;97210;;;;
2022/09/28 09:03:43;;;;;;;0.7;2.2;;;;;;;13.5;60;97220;;;;
2022/09/28 09:13:41;;;;;;;1;1.5;;;;;;;13.9;61.7;97220;;;;
2022/09/28 09:24:41;;;;;;;1;1.5;;;;;;;14;59.4;97220;;;;
2022/09/28 09:35:41;;;;;;;1;1.5;;;;;;;14.5;58.9;97210;;;;
2022/09/28 09:46:41;;;;;;;0.7;2.3;;;;;;;14.5;60.7;97210;;;;
2022/09/28 09:56:42;;;;;;;0.7;2.3;;;;;;;15.2;57;97210;;;;
2022/09/28 10:07:41;;;;;;;0.7;2.3;;;;;;;14.7;58.2;97190;;;;
2022/09/28 10:18:41;;;;;;;0.6;1.9;;;;;;;15.3;57;97190;;;;
2022/09/28 10:28:41;;;;;;;0.6;1.9;;;;;;;15.8;57.3;97170;;;;
2022/09/28 10:38:41;;;;;;;0.6;1.9;;;;;;;16.4;56.3;97180;;;;
2022/09/28 10:49:41;;;;;;;0.7;2;;;;;;;16.7;55;97160;;;;
2022/09/28 11:00:41;;;;;;;0.7;2;;;;;;;16.5;55.6;97150;;;;
2022/09/28 11:10:41;;;;;;;0.6;1.5;;;;;;;16.3;57.1;97130;;;;
2022/09/28 11:21:41;;;;;;;0.6;1.5;;;;;;;16;57.6;97120;;;;
2022/09/28 11:31:42;;;;;;;0.6;1.5;;;;;;;15.9;57;97120;;;;
2022/09/28 11:42:41;;;;;;;0.9;2.5;;;;;;;16;58.1;97100;;;;
2022/09/28 11:52:41;;;;;;;0.9;2.5;;;;;;;16.4;55.2;97080;;;;
2022/09/28 12:03:41;;;;;;;0.9;2.5;;;;;;;16.6;56.1;97080;;;;
2022/09/28 12:13:43;;;;;;;1.1;3.1;;;;;;;16.9;54.8;97070;;;;
2022/09/28 12:24:41;;;;;;;1.1;3.1;;;;;;;17.3;53.6;97060;;;;
2022/09/28 12:34:41;;;;;;;1.1;3.1;;;;;;;17.7;54.1;97050;;;;
2022/09/28 12:45:41;;;;;;;0.7;1.8;;;;;;;17.9;52.5;97030;;;;
2022/09/28 12:55:41;;;;;;;0.7;1.8;;;;;;;18.1;51.5;97030;;;;
2022/09/28 13:06:41;;;;;;;0.7;1.8;;;;;;;18.7;54.5;97020;;;;
2022/09/28 13:16:41;;;;;;;0.7;2.3;;;;;;;18.9;52.5;97030;;;;
2022/09/28 13:26:41;;;;;;;0.7;2.3;;;;;;;18.5;51.2;97020;;;;
2022/09/28 13:36:41;;;;;;;0.7;2.3;;;;;;;18.4;54.4;97020;;;;
2022/09/28 13:47:41;;;;;;;0.9;2.5;;;;;;;18.5;52.9;97000;;;;
2022/09/28 13:58:41;;;;;;;0.9;2.5;;;;;;;18.1;53.1;97030;;;;
2022/09/28 14:08:41;;;;;;;0.9;2.5;;;;;;;17.6;54.6;97040;;;;
2022/09/28 14:18:41;;;;;;;0.9;2.8;;;;;;;17.3;55;97020;;;;
2022/09/28 14:29:41;;;;;;;0.9;2.8;;;;;;;16.9;56.2;97020;;;;
2022/09/28 14:41:13;;;;;;;0.8;2.6;;;;;;;16.6;59.7;97010;;;;
2022/09/28 14:50:41;;;;;;;0.8;2.6;;;;;;;16;61.9;97010;;;;
2022/09/28 15:01:41;;;;;;;0.8;2.6;;;;;;;15.8;61.8;97000;;;;
2022/09/28 15:12:41;;;;;;;1.9;6.1;;;;;;;15.5;60.8;97010;;;;
2022/09/28 15:22:41;;;;;;;1.9;6.1;;;;;;;15.4;62.3;97010;;;;
2022/09/28 15:44:41;;;;;;;2.5;4.7;;;;;;;15.2;63;97010;;;;
2022/09/28 15:54:41;;;;;;;2.5;4.7;;;;;;;15;62.3;97010;;;;
2022/09/28 16:04:41;;;;;;;2.5;4.7;;;;;;;15;62.8;97010;;;;
2022/09/28 16:14:41;;;;;;;2.6;5.2;;;;;;;14.8;63.4;97000;;;;
2022/09/28 16:24:41;;;;;;;2.6;5.2;;;;;;;14.6;63.9;97010;;;;
2022/09/28 16:35:41;;;;;;;2.6;5.2;;;;;;;14.5;63.2;97010;;;;
2022/09/28 16:45:41;;;;;;;1.8;4.5;;;;;;;14.5;63.8;97010;;;;
2022/09/28 16:56:41;;;;;;;1.8;4.5;;;;;;;14.3;65.6;97020;;;;
2022/09/28 17:06:42;;;;;;;1.8;4.5;;;;;;;14.3;65.3;97010;;;;
2022/09/28 17:16:41;;;;;;;2.8;5.4;;;;;;;14.2;67.1;97010;;;;
2022/09/28 17:27:41;;;;;;;2.8;5.4;;;;;;;14.2;66.6;97030;;;;
2022/09/28 17:37:41;;;;;;;2.8;5.4;;;;;;;14.2;66.5;97030;;;;
2022/09/28 17:47:41;;;;;;;2.5;4.7;;;;;;;14.1;67.1;97030;;;;
2022/09/28 17:58:41;;;;;;;2.5;4.7;;;;;;;14.1;67.9;97040;;;;
2022/09/28 18:08:42;;;;;;;2.5;4.7;;;;;;;14.1;68.4;97050;;;;
2022/09/28 18:19:41;;;;;;;3.2;5.3;;;;;;;14;68.4;97070;;;;
2022/09/28 18:29:41;;;;;;;3.2;5.3;;;;;;;13.9;69.1;97070;;;;
2022/09/28 18:39:41;;;;;;;3.2;5.3;;;;;;;13.9;68.7;97070;;;;
2022/09/28 18:49:41;;;;;;;4.9;8.7;;;;;;;13.8;69.7;97090;;;;
2022/09/28 19:00:41;;;;;;;4.9;8.7;;;;;;;13.7;69.8;97100;;;;
2022/09/28 19:10:43;;;;;;;5.4;9.9;;;;;;;13.5;70.4;97120;;;;
2022/09/28 19:20:43;;;;;;;5.4;9.9;;;;;;;13.4;71.9;97120;;;;
2022/09/28 19:30:41;;;;;;;5.4;9.9;;;;;;;13.4;72.9;97130;;;;
2022/09/28 19:40:41;;;;;;;3.3;8.7;;;;;;;13.5;73.7;97130;;;;
2022/09/28 19:50:41;;;;;;;3.3;8.7;;;;;;;13.4;76.1;97130;;;;
2022/09/28 20:01:42;;;;;;;3.3;8.7;;;;;;;13.4;76.5;97140;;;;
2022/09/28 20:11:41;;;;;;;1.8;3.3;;;;;;;13.3;77;97140;;;;
2022/09/28 20:22:42;;;;;;;1.8;3.3;;;;;;;13.4;77.3;97170;;;;
2022/09/28 20:33:41;;;;;;;1.8;3.3;;;;;;;13.4;77.7;97190;;;;
2022/09/28 20:44:41;;;;;;;2.7;4.9;;;;;;;13.2;80.7;97220;;;;
2022/09/28 20:55:41;;;;;;;2.7;4.9;;;;;;;13;81.7;97210;;;;
2022/09/28 21:06:41;;;;;;;2.7;4.9;;;;;;;12.8;82.8;97210;;;;
2022/09/28 21:16:41;;;;;;;2.8;5.6;;;;;;;12.7;83.4;97220;;;;
2022/09/28 21:26:41;;;;;;;2.8;5.6;;;;;;;12.7;83.9;97210;;;;
2022/09/28 21:37:41;;;;;;;2.8;5.6;;;;;;;12.8;83.5;97210;;;;
2022/09/28 21:47:46;;;;;;;2.4;5.6;;;;;;;12.9;83;97220;;;;
2022/09/28 21:58:41;;;;;;;2.4;5.6;;;;;;;12.9;82.6;97230;;;;
2022/09/28 22:08:41;;;;;;;2.4;5.6;;;;;;;12.8;83.4;97250;;;;
2022/09/28 22:18:41;;;;;;;1.8;3.6;;;;;;;12.7;84.2;97270;;;;
2022/09/28 22:28:41;;;;;;;1.8;3.6;;;;;;;12.7;84.3;97270;;;;
2022/09/28 22:39:41;;;;;;;1.8;3.6;;;;;;;12.6;85.4;97270;;;;
2022/09/28 22:49:41;;;;;;;1.6;3.6;;;;;;;12.6;85.9;97290;;;;
2022/09/28 23:00:42;;;;;;;1.6;3.6;;;;;;;12.7;85.9;97300;;;;
2022/09/28 23:10:41;;;;;;;1.8;4.7;;;;;;;12.7;85.9;97300;;;;
2022/09/28 23:21:41;;;;;;;1.8;4.7;;;;;;;12.7;85.9;97300;;;;
2022/09/28 23:32:41;;;;;;;1.8;4.7;;;;;;;12.7;85.7;97310;;;;
2022/09/28 23:42:41;;;;;;;1.9;3.1;;;;;;;12.4;86.7;97310;;;;
2022/09/28 23:53:42;;;;;;;1.9;3.1;;;;;;;12.4;87.1;97310;;;;
